createdAt,value
2019-03-25T00:02:26.643Z,13.90
2019-03-25T00:04:56.792Z,13.90
2019-03-25T00:07:26.884Z,13.90
2019-03-25T00:09:57.024Z,13.80
2019-03-25T00:12:27.170Z,13.80
2019-03-25T00:14:58.741Z,13.80
2019-03-25T00:17:28.865Z,13.80
2019-03-25T00:19:58.986Z,13.90
2019-03-25T00:22:29.119Z,13.80
2019-03-25T00:24:59.274Z,13.90
2019-03-25T00:27:29.385Z,13.80
2019-03-25T00:29:59.525Z,13.80
2019-03-25T00:32:29.636Z,13.80
2019-03-25T00:34:59.763Z,13.80
2019-03-25T00:37:29.873Z,13.80
2019-03-25T00:40:00.021Z,13.80
2019-03-25T00:42:30.118Z,13.80
2019-03-25T00:45:00.426Z,13.80
2019-03-25T00:47:30.557Z,13.80
2019-03-25T00:50:00.706Z,13.70
2019-03-25T00:52:30.907Z,13.70
2019-03-25T00:55:01.129Z,13.70
2019-03-25T00:57:31.341Z,13.70
2019-03-25T01:00:01.474Z,13.70
2019-03-25T01:02:33.837Z,13.70
2019-03-25T01:05:03.981Z,13.70
2019-03-25T01:07:34.107Z,13.70
2019-03-25T01:10:04.755Z,13.70
2019-03-25T01:12:34.894Z,13.70
2019-03-25T01:15:05.175Z,13.70
2019-03-25T01:17:35.309Z,13.70
2019-03-25T01:20:05.487Z,13.70
2019-03-25T01:22:35.590Z,13.70
2019-03-25T01:25:05.797Z,13.60
2019-03-25T01:27:35.925Z,13.60
2019-03-25T01:30:07.558Z,13.60
2019-03-25T01:32:37.668Z,13.70
2019-03-25T01:35:07.954Z,13.60
2019-03-25T01:37:38.089Z,13.60
2019-03-25T01:40:08.330Z,13.60
2019-03-25T01:42:38.444Z,13.60
2019-03-25T01:45:08.570Z,13.60
2019-03-25T01:47:38.690Z,13.60
2019-03-25T01:50:08.815Z,13.60
2019-03-25T01:52:38.937Z,13.60
2019-03-25T01:55:13.670Z,13.60
2019-03-25T01:57:40.946Z,13.60
2019-03-25T02:00:11.187Z,13.50
2019-03-25T02:02:41.303Z,13.60
2019-03-25T02:05:12.422Z,13.50
2019-03-25T02:07:42.554Z,13.50
2019-03-25T02:10:12.710Z,13.50
2019-03-25T02:12:42.818Z,13.40
2019-03-25T02:15:12.952Z,13.40
2019-03-25T02:17:43.059Z,13.40
2019-03-25T02:20:13.192Z,13.40
2019-03-25T02:22:43.389Z,13.50
2019-03-25T02:25:24.608Z,13.40
2019-03-25T02:27:45.450Z,13.40
2019-03-25T02:30:15.596Z,13.50
2019-03-25T02:32:45.711Z,13.40
2019-03-25T02:35:15.855Z,13.40
2019-03-25T02:37:45.953Z,13.40
2019-03-25T02:40:16.122Z,13.30
2019-03-25T02:42:46.247Z,13.30
2019-03-25T02:45:16.394Z,13.30
2019-03-25T02:47:46.594Z,13.20
2019-03-25T02:50:16.799Z,13.20
2019-03-25T02:52:46.910Z,13.10
2019-03-25T02:55:17.043Z,13.20
2019-03-25T02:57:48.171Z,13.10
2019-03-25T03:00:35.037Z,13.10
2019-03-25T03:03:08.117Z,13.10
2019-03-25T03:05:38.278Z,13.10
2019-03-25T03:08:08.404Z,13.10
2019-03-25T03:10:38.739Z,13.00
2019-03-25T03:13:08.847Z,13.00
2019-03-25T03:15:41.157Z,13.10
2019-03-25T03:18:11.261Z,13.10
2019-03-25T03:20:41.673Z,13.10
2019-03-25T03:23:11.771Z,13.10
2019-03-25T03:25:56.218Z,13.10
2019-03-25T03:28:13.695Z,13.10
2019-03-25T03:30:43.837Z,13.10
2019-03-25T03:33:13.960Z,13.10
2019-03-25T03:35:46.476Z,13.10
2019-03-25T03:38:15.952Z,13.00
2019-03-25T03:40:46.090Z,13.00
2019-03-25T03:43:16.229Z,13.00
2019-03-25T03:45:46.414Z,13.00
2019-03-25T03:48:17.570Z,13.00
2019-03-25T03:50:47.716Z,13.00
2019-03-25T03:53:17.825Z,13.00
2019-03-25T03:55:47.967Z,13.00
2019-03-25T03:58:18.081Z,13.00
2019-03-25T04:00:48.217Z,12.90
2019-03-25T04:03:18.343Z,12.90
2019-03-25T04:05:48.468Z,12.90
2019-03-25T04:08:18.579Z,12.90
2019-03-25T04:10:48.698Z,12.90
2019-03-25T04:13:18.793Z,12.90
2019-03-25T04:15:51.073Z,13.00
2019-03-25T04:18:21.334Z,13.00
2019-03-25T04:20:51.453Z,12.90
2019-03-25T04:23:21.558Z,12.90
2019-03-25T04:25:51.705Z,12.90
2019-03-25T04:28:21.878Z,12.90
2019-03-25T04:30:52.017Z,12.90
2019-03-25T04:33:22.157Z,12.90
2019-03-25T04:35:52.345Z,12.80
2019-03-25T04:38:22.465Z,12.80
2019-03-25T04:40:52.587Z,12.80
2019-03-25T04:43:22.719Z,12.80
2019-03-25T04:45:52.857Z,12.80
2019-03-25T04:48:22.984Z,12.80
2019-03-25T04:50:53.109Z,12.80
2019-03-25T04:53:23.272Z,12.80
2019-03-25T04:55:53.453Z,12.80
2019-03-25T04:58:23.614Z,12.80
2019-03-25T05:00:53.754Z,12.80
2019-03-25T05:03:23.862Z,12.80
2019-03-25T05:05:53.993Z,12.80
2019-03-25T05:08:24.121Z,12.80
2019-03-25T05:10:54.269Z,12.70
2019-03-25T05:13:24.430Z,12.80
2019-03-25T05:15:54.573Z,12.70
2019-03-25T05:18:24.681Z,12.70
2019-03-25T05:20:54.818Z,12.80
2019-03-25T05:23:24.942Z,12.80
2019-03-25T05:25:57.889Z,12.70
2019-03-25T05:28:27.995Z,12.70
2019-03-25T05:30:58.128Z,12.70
2019-03-25T05:33:28.229Z,12.70
2019-03-25T05:35:58.364Z,12.70
2019-03-25T05:38:28.466Z,12.70
2019-03-25T05:40:58.622Z,12.70
2019-03-25T05:43:28.750Z,12.70
2019-03-25T05:45:58.874Z,12.70
2019-03-25T05:48:29.064Z,12.60
2019-03-25T05:50:59.217Z,12.70
2019-03-25T05:53:29.504Z,12.60
2019-03-25T05:55:59.637Z,12.60
2019-03-25T05:58:30.795Z,12.60
2019-03-25T06:01:13.091Z,12.60
2019-03-25T06:03:43.225Z,12.60
2019-03-25T06:06:13.365Z,12.60
2019-03-25T06:08:43.935Z,12.60
2019-03-25T06:11:14.142Z,12.60
2019-03-25T06:13:44.294Z,12.60
2019-03-25T06:16:14.447Z,12.50
2019-03-25T06:18:44.568Z,12.50
2019-03-25T06:21:14.691Z,12.50
2019-03-25T06:23:44.814Z,12.50
2019-03-25T06:26:14.938Z,12.50
2019-03-25T06:28:45.066Z,12.50
2019-03-25T06:31:15.204Z,12.50
2019-03-25T06:33:45.342Z,12.50
2019-03-25T06:36:15.474Z,12.60
2019-03-25T06:38:45.654Z,12.50
2019-03-25T06:41:15.798Z,12.60
2019-03-25T06:43:45.953Z,12.50
2019-03-25T06:46:16.107Z,12.60
2019-03-25T06:48:46.320Z,12.60
2019-03-25T06:51:16.497Z,12.50
2019-03-25T06:53:46.618Z,12.60
2019-03-25T06:56:16.754Z,12.50
2019-03-25T06:58:46.855Z,12.50
2019-03-25T07:01:17.065Z,12.50
2019-03-25T07:03:47.239Z,12.50
2019-03-25T07:06:17.419Z,12.50
2019-03-25T07:08:47.544Z,12.50
2019-03-25T07:11:17.720Z,12.60
2019-03-25T07:13:47.874Z,12.50
2019-03-25T07:16:18.037Z,12.60
2019-03-25T07:18:48.184Z,12.50
2019-03-25T07:21:20.510Z,12.50
2019-03-25T07:23:50.202Z,12.50
2019-03-25T07:26:20.349Z,12.60
2019-03-25T07:28:50.519Z,12.60
2019-03-25T07:31:20.703Z,12.50
2019-03-25T07:33:50.942Z,12.60
2019-03-25T07:36:21.650Z,12.60
2019-03-25T07:38:51.860Z,12.60
2019-03-25T07:41:22.030Z,12.60
2019-03-25T07:43:52.185Z,12.60
2019-03-25T07:46:22.357Z,12.50
2019-03-25T07:48:52.500Z,12.60
2019-03-25T07:51:22.652Z,12.60
2019-03-25T07:53:52.806Z,12.70
2019-03-25T07:56:23.995Z,12.70
2019-03-25T07:58:55.156Z,12.70
2019-03-25T08:01:25.328Z,12.60
2019-03-25T08:03:57.126Z,12.60
2019-03-25T08:06:30.523Z,12.60
2019-03-25T08:09:04.061Z,12.60
2019-03-25T08:11:32.685Z,12.60
2019-03-25T08:14:02.838Z,12.70
2019-03-25T08:16:33.034Z,12.70
2019-03-25T08:19:03.161Z,12.70
2019-03-25T08:21:33.282Z,12.70
2019-03-25T08:24:03.402Z,12.70
2019-03-25T08:26:45.573Z,12.70
2019-03-25T08:29:16.591Z,12.80
2019-03-25T08:31:46.726Z,12.80
2019-03-25T08:34:16.867Z,12.80
2019-03-25T08:36:47.001Z,12.80
2019-03-25T08:39:17.154Z,12.80
2019-03-25T08:41:47.305Z,12.80
2019-03-25T08:44:17.613Z,12.80
2019-03-25T08:46:47.766Z,12.80
2019-03-25T08:49:17.879Z,12.90
2019-03-25T08:51:48.015Z,12.90
2019-03-25T08:54:18.118Z,12.90
2019-03-25T08:56:48.650Z,12.90
2019-03-25T08:59:18.777Z,12.90
2019-03-25T09:01:48.929Z,12.90
2019-03-25T09:04:19.111Z,12.90
2019-03-25T09:06:49.282Z,13.00
2019-03-25T09:09:19.431Z,13.00
2019-03-25T09:11:51.643Z,13.10
2019-03-25T09:14:21.659Z,13.10
2019-03-25T09:16:51.790Z,13.20
2019-03-25T09:19:22.334Z,13.20
2019-03-25T09:21:52.514Z,13.20
2019-03-25T09:24:22.678Z,13.20
2019-03-25T09:26:52.830Z,13.30
2019-03-25T09:29:22.942Z,13.30
2019-03-25T09:31:53.143Z,13.30
2019-03-25T09:34:23.258Z,13.40
2019-03-25T09:36:53.386Z,13.40
2019-03-25T09:39:23.518Z,13.50
2019-03-25T09:41:53.662Z,13.50
2019-03-25T09:44:24.810Z,13.60
2019-03-25T09:46:54.918Z,13.60
2019-03-25T09:49:25.108Z,13.60
2019-03-25T09:51:55.276Z,13.70
2019-03-25T09:54:25.393Z,13.70
2019-03-25T09:56:55.509Z,13.70
2019-03-25T09:59:25.622Z,13.80
2019-03-25T10:01:55.758Z,13.80
2019-03-25T10:04:25.888Z,13.80
2019-03-25T10:06:56.034Z,13.80
2019-03-25T10:09:27.200Z,13.80
2019-03-25T10:11:57.350Z,13.80
2019-03-25T10:14:27.460Z,13.90
2019-03-25T10:16:57.590Z,13.90
2019-03-25T10:19:27.698Z,13.90
2019-03-25T10:21:57.854Z,13.90
2019-03-25T10:24:28.215Z,14.00
2019-03-25T10:26:58.863Z,14.00
2019-03-25T10:29:28.962Z,14.00
2019-03-25T10:31:59.183Z,14.00
2019-03-25T10:34:29.306Z,14.00
2019-03-25T10:36:59.450Z,14.00
2019-03-25T10:39:29.578Z,14.00
2019-03-25T10:42:00.084Z,14.00
2019-03-25T10:44:30.204Z,14.10
2019-03-25T10:47:00.362Z,14.10
2019-03-25T10:49:30.462Z,14.10
2019-03-25T10:52:00.594Z,14.10
2019-03-25T10:54:30.787Z,14.10
2019-03-25T10:57:00.926Z,14.10
2019-03-25T10:59:31.059Z,14.20
2019-03-25T11:02:01.189Z,14.20
2019-03-25T11:04:31.338Z,14.20
2019-03-25T11:07:01.486Z,14.30
2019-03-25T11:09:31.646Z,14.30
2019-03-25T11:12:01.802Z,14.30
2019-03-25T11:14:33.520Z,14.30
2019-03-25T11:17:03.769Z,14.30
2019-03-25T11:19:33.876Z,14.20
2019-03-25T11:22:04.020Z,14.20
2019-03-25T11:24:34.204Z,14.20
2019-03-25T11:27:04.338Z,14.30
2019-03-25T11:29:34.449Z,14.30
2019-03-25T11:32:04.615Z,14.30
2019-03-25T11:34:35.695Z,14.40
2019-03-25T11:37:05.839Z,14.40
2019-03-25T11:39:35.972Z,14.40
2019-03-25T11:42:06.168Z,14.50
2019-03-25T11:44:36.294Z,14.50
2019-03-25T11:47:06.483Z,14.50
2019-03-25T11:49:36.600Z,14.60
2019-03-25T11:52:11.045Z,14.60
2019-03-25T11:54:42.786Z,14.60
2019-03-25T11:57:12.921Z,14.60
2019-03-25T11:59:43.061Z,14.60
2019-03-25T12:02:17.438Z,14.70
2019-03-25T12:04:48.024Z,14.70
2019-03-25T12:07:18.142Z,14.70
2019-03-25T12:09:48.272Z,14.80
2019-03-25T12:12:18.396Z,14.80
2019-03-25T12:14:48.502Z,14.80
2019-03-25T12:17:19.094Z,14.80
2019-03-25T12:19:49.382Z,14.80
2019-03-25T12:22:19.528Z,14.90
2019-03-25T12:24:49.634Z,14.90
2019-03-25T12:27:19.816Z,15.00
2019-03-25T12:29:49.988Z,15.00
2019-03-25T12:32:20.146Z,15.00
2019-03-25T12:34:50.265Z,15.00
2019-03-25T12:37:20.384Z,15.00
2019-03-25T12:39:50.510Z,15.00
2019-03-25T12:42:20.657Z,15.10
2019-03-25T12:44:50.778Z,15.10
2019-03-25T12:47:20.948Z,15.10
2019-03-25T12:49:51.068Z,15.10
2019-03-25T12:52:21.241Z,15.20
2019-03-25T12:54:54.193Z,15.20
2019-03-25T12:57:24.316Z,15.20
2019-03-25T12:59:54.440Z,15.20
2019-03-25T13:02:24.663Z,15.20
2019-03-25T13:04:54.803Z,15.20
2019-03-25T13:07:24.964Z,15.20
2019-03-25T13:09:55.097Z,15.20
2019-03-25T13:12:26.851Z,15.20
2019-03-25T13:14:56.981Z,15.20
2019-03-25T13:17:28.057Z,15.20
2019-03-25T13:19:58.173Z,15.30
2019-03-25T13:22:28.299Z,15.20
2019-03-25T13:24:58.392Z,15.30
2019-03-25T13:27:28.537Z,15.30
2019-03-25T13:29:58.654Z,15.30
2019-03-25T13:32:28.783Z,15.30
2019-03-25T13:34:58.901Z,15.30
2019-03-25T13:37:29.057Z,15.30
2019-03-25T13:39:59.186Z,15.40
2019-03-25T13:42:29.325Z,15.40
2019-03-25T13:44:59.436Z,15.40
2019-03-25T13:47:29.569Z,15.30
2019-03-25T13:49:59.689Z,15.40
2019-03-25T13:52:29.827Z,15.40
2019-03-25T13:54:59.925Z,15.40
2019-03-25T13:57:30.071Z,15.40
2019-03-25T14:00:03.694Z,15.40
2019-03-25T14:02:34.074Z,15.40
2019-03-25T14:05:04.282Z,15.40
2019-03-25T14:07:34.442Z,15.50
2019-03-25T14:10:05.002Z,15.50
2019-03-25T14:12:35.150Z,15.50
2019-03-25T14:15:05.653Z,15.50
2019-03-25T14:17:35.863Z,15.50
2019-03-25T14:20:08.230Z,15.50
2019-03-25T14:22:38.465Z,15.50
2019-03-25T14:25:09.895Z,15.50
2019-03-25T14:27:40.073Z,15.50
2019-03-25T14:30:14.744Z,15.40
2019-03-25T14:32:42.079Z,15.40
2019-03-25T14:35:12.189Z,15.40
2019-03-25T14:37:42.329Z,15.40
2019-03-25T14:40:13.501Z,15.40
2019-03-25T14:42:43.670Z,15.40
2019-03-25T14:45:13.775Z,15.40
2019-03-25T14:47:43.935Z,15.40
2019-03-25T14:50:14.053Z,15.40
2019-03-25T14:52:44.201Z,15.40
2019-03-25T14:55:14.401Z,15.40
2019-03-25T14:57:44.537Z,15.30
2019-03-25T15:00:24.756Z,15.30
2019-03-25T15:02:47.534Z,15.30
2019-03-25T15:05:17.690Z,15.30
2019-03-25T15:07:47.857Z,15.40
2019-03-25T15:10:17.993Z,15.40
2019-03-25T15:12:49.758Z,15.30
2019-03-25T15:15:19.977Z,15.40
2019-03-25T15:17:50.116Z,15.40
2019-03-25T15:20:20.296Z,15.40
2019-03-25T15:22:50.439Z,15.30
2019-03-25T15:25:20.565Z,15.30
2019-03-25T15:27:50.695Z,15.40
2019-03-25T15:30:21.420Z,15.40
2019-03-25T15:32:51.592Z,15.30
2019-03-25T15:35:21.730Z,15.30
2019-03-25T15:37:51.921Z,15.30
2019-03-25T15:40:23.246Z,15.30
2019-03-25T15:42:53.746Z,15.30
2019-03-25T15:45:23.894Z,15.30
2019-03-25T15:47:54.039Z,15.30
2019-03-25T15:50:24.171Z,15.30
2019-03-25T15:52:54.322Z,15.30
2019-03-25T15:55:25.448Z,15.30
2019-03-25T15:57:55.807Z,15.20
2019-03-25T16:00:25.967Z,15.20
2019-03-25T16:02:56.128Z,15.30
2019-03-25T16:05:26.270Z,15.20
2019-03-25T16:07:56.448Z,15.20
2019-03-25T16:10:26.593Z,15.20
2019-03-25T16:12:56.833Z,15.20
2019-03-25T16:15:45.235Z,15.20
2019-03-25T16:18:49.722Z,15.20
2019-03-25T16:21:19.868Z,15.20
2019-03-25T16:23:50.016Z,15.20
2019-03-25T16:26:21.136Z,15.10
2019-03-25T16:28:51.270Z,15.10
2019-03-25T16:31:21.404Z,15.10
2019-03-25T16:33:53.166Z,15.10
2019-03-25T16:36:23.341Z,15.10
2019-03-25T16:38:53.611Z,15.10
2019-03-25T16:41:23.750Z,15.10
2019-03-25T16:43:54.189Z,15.10
2019-03-25T16:46:24.356Z,15.10
2019-03-25T16:48:55.371Z,15.10
2019-03-25T16:51:26.103Z,15.10
2019-03-25T16:53:56.251Z,15.10
2019-03-25T16:56:26.369Z,15.10
2019-03-25T16:58:56.514Z,15.10
2019-03-25T17:01:26.622Z,15.10
2019-03-25T17:03:56.807Z,15.00
2019-03-25T17:06:26.960Z,15.00
2019-03-25T17:08:57.110Z,15.00
2019-03-25T17:11:27.262Z,15.00
2019-03-25T17:13:57.409Z,15.00
2019-03-25T17:16:27.554Z,14.90
2019-03-25T17:18:57.702Z,14.90
2019-03-25T17:21:27.840Z,14.90
2019-03-25T17:23:57.965Z,14.90
2019-03-25T17:26:28.101Z,14.90
2019-03-25T17:28:58.272Z,14.90
2019-03-25T17:31:28.416Z,14.90
2019-03-25T17:33:58.558Z,14.90
2019-03-25T17:36:28.692Z,14.90
2019-03-25T17:38:58.817Z,14.90
2019-03-25T17:41:28.964Z,14.90
2019-03-25T17:43:59.533Z,14.90
2019-03-25T17:46:29.669Z,14.90
2019-03-25T17:49:00.661Z,14.90
2019-03-25T17:51:30.851Z,14.90
2019-03-25T17:54:01.206Z,14.80
2019-03-25T17:56:31.374Z,14.80
2019-03-25T17:59:01.541Z,14.80
2019-03-25T18:01:34.377Z,14.90
2019-03-25T18:04:04.857Z,14.90
2019-03-25T18:06:35.038Z,14.80
2019-03-25T18:09:08.870Z,14.80
2019-03-25T18:11:39.047Z,14.80
2019-03-25T18:14:09.303Z,14.80
2019-03-25T18:16:39.441Z,14.80
2019-03-25T18:19:09.607Z,14.80
2019-03-25T18:21:39.844Z,14.80
2019-03-25T18:24:09.969Z,14.80
2019-03-25T18:26:40.111Z,14.80
2019-03-25T18:29:10.252Z,14.80
2019-03-25T18:31:43.720Z,14.80
2019-03-25T18:34:13.270Z,14.70
2019-03-25T18:36:43.429Z,14.70
2019-03-25T18:39:13.592Z,14.80
2019-03-25T18:41:43.760Z,14.70
2019-03-25T18:44:13.924Z,14.70
2019-03-25T18:46:46.717Z,14.70
2019-03-25T18:49:16.861Z,14.70
2019-03-25T18:51:46.995Z,14.70
2019-03-25T18:54:18.167Z,14.60
2019-03-25T18:56:50.007Z,14.60
2019-03-25T18:59:20.281Z,14.60
2019-03-25T19:01:54.619Z,14.70
2019-03-25T19:04:23.341Z,14.70
2019-03-25T19:06:53.528Z,14.60
2019-03-25T19:09:23.757Z,14.60
2019-03-25T19:11:54.777Z,14.60
2019-03-25T19:14:25.033Z,14.60
2019-03-25T19:16:55.172Z,14.60
2019-03-25T19:19:25.382Z,14.60
2019-03-25T19:21:55.590Z,14.60
2019-03-25T19:24:27.350Z,14.60
2019-03-25T19:26:57.533Z,14.60
2019-03-25T19:29:30.002Z,14.60
2019-03-25T19:32:06.651Z,14.60
2019-03-25T19:34:33.048Z,14.60
2019-03-25T19:37:03.236Z,14.60
2019-03-25T19:39:33.939Z,14.60
2019-03-25T19:42:04.131Z,14.50
2019-03-25T19:44:35.711Z,14.50
2019-03-25T19:47:06.014Z,14.50
2019-03-25T19:49:36.264Z,14.50
2019-03-25T19:52:08.316Z,14.50
2019-03-25T19:54:38.271Z,14.50
2019-03-25T19:57:08.640Z,14.50
2019-03-25T19:59:38.796Z,14.50
2019-03-25T20:02:18.475Z,14.50
2019-03-25T20:04:40.859Z,14.50
2019-03-25T20:07:11.019Z,14.40
2019-03-25T20:09:42.518Z,14.40
2019-03-25T20:12:13.050Z,14.40
2019-03-25T20:14:43.401Z,14.50
2019-03-25T20:17:13.859Z,14.40
2019-03-25T20:19:44.021Z,14.40
2019-03-25T20:22:14.217Z,14.40
2019-03-25T20:24:44.366Z,14.40
2019-03-25T20:27:14.516Z,14.40
2019-03-25T20:29:44.718Z,14.40
2019-03-25T20:32:14.923Z,14.40
2019-03-25T20:34:45.186Z,14.40
2019-03-25T20:37:15.350Z,14.40
2019-03-25T20:39:46.642Z,14.40
2019-03-25T20:42:17.735Z,14.40
2019-03-25T20:44:47.861Z,14.40
2019-03-25T20:47:18.025Z,14.30
2019-03-25T20:49:48.205Z,14.40
2019-03-25T20:52:18.374Z,14.30
2019-03-25T20:54:48.514Z,14.30
2019-03-25T20:57:19.620Z,14.30
2019-03-25T20:59:49.831Z,14.30
2019-03-25T21:02:19.985Z,14.30
2019-03-25T21:04:50.164Z,14.30
2019-03-25T21:07:20.366Z,14.30
2019-03-25T21:09:50.592Z,14.30
2019-03-25T21:12:20.813Z,14.20
2019-03-25T21:14:51.052Z,14.20
2019-03-25T21:17:21.280Z,14.20
2019-03-25T21:19:51.514Z,14.20
2019-03-25T21:22:21.684Z,14.20
2019-03-25T21:24:51.844Z,14.20
2019-03-25T21:27:22.035Z,14.20
2019-03-25T21:29:52.229Z,14.20
2019-03-25T21:32:22.451Z,14.20
2019-03-25T21:34:52.661Z,14.20
2019-03-25T21:37:22.806Z,14.20
2019-03-25T21:39:52.958Z,14.20
2019-03-25T21:42:23.156Z,14.20
2019-03-25T21:44:53.306Z,14.20
2019-03-25T21:47:23.516Z,14.10
2019-03-25T21:49:56.454Z,14.10
2019-03-25T21:52:26.575Z,14.10
2019-03-25T21:54:56.751Z,14.10
2019-03-25T21:57:28.596Z,14.10
2019-03-25T21:59:58.779Z,14.10
2019-03-25T22:02:28.897Z,14.00
2019-03-25T22:04:59.024Z,14.00
2019-03-25T22:07:29.161Z,14.00
2019-03-25T22:09:59.292Z,14.00
2019-03-25T22:12:29.433Z,14.00
2019-03-25T22:14:59.571Z,14.00
2019-03-25T22:17:29.678Z,14.00
2019-03-25T22:19:59.813Z,14.00
2019-03-25T22:22:29.926Z,13.90
2019-03-25T22:25:00.093Z,13.90
2019-03-25T22:27:30.370Z,14.00
2019-03-25T22:30:00.808Z,14.00
2019-03-25T22:32:30.917Z,14.00
2019-03-25T22:35:01.051Z,13.90
2019-03-25T22:37:31.171Z,14.00
2019-03-25T22:40:01.331Z,13.90
2019-03-25T22:42:31.465Z,14.00
2019-03-25T22:45:01.639Z,14.00
2019-03-25T22:47:31.757Z,13.90
2019-03-25T22:50:01.910Z,13.90
2019-03-25T22:52:32.030Z,13.90
2019-03-25T22:55:02.178Z,13.90
2019-03-25T22:57:32.281Z,13.90
2019-03-25T23:00:05.415Z,13.90
2019-03-25T23:02:37.158Z,13.90
2019-03-25T23:05:07.448Z,13.90
2019-03-25T23:07:37.568Z,13.90
2019-03-25T23:10:07.742Z,13.90
2019-03-25T23:12:37.886Z,13.90
2019-03-25T23:15:08.022Z,13.90
2019-03-25T23:17:38.136Z,13.80
2019-03-25T23:20:08.322Z,13.80
2019-03-25T23:22:38.430Z,13.80
2019-03-25T23:25:08.562Z,13.70
2019-03-25T23:27:39.684Z,13.80
2019-03-25T23:30:09.848Z,13.80
2019-03-25T23:32:40.036Z,13.70
2019-03-25T23:35:10.178Z,13.70
2019-03-25T23:37:40.326Z,13.70
2019-03-25T23:40:10.459Z,13.70
2019-03-25T23:42:40.582Z,13.70
2019-03-25T23:45:10.744Z,13.70
2019-03-25T23:47:40.874Z,13.70
2019-03-25T23:50:11.031Z,13.70
2019-03-25T23:52:41.162Z,13.70
2019-03-25T23:55:11.286Z,13.70
2019-03-25T23:57:41.409Z,13.60
